createdAt,value
2023-03-16T00:02:05.456Z,5.03
2023-03-16T00:04:32.823Z,4.95
2023-03-16T00:06:59.406Z,4.68
2023-03-16T00:09:26.025Z,4.60
2023-03-16T00:11:53.018Z,4.63
2023-03-16T00:14:24.709Z,4.50
2023-03-16T00:16:51.355Z,5.10
2023-03-16T00:19:22.925Z,4.35
2023-03-16T00:21:53.128Z,4.22
2023-03-16T00:24:20.460Z,3.88
2023-03-16T00:26:47.881Z,4.13
2023-03-16T00:29:16.098Z,3.67
2023-03-16T00:31:45.874Z,3.25
2023-03-16T00:34:12.753Z,3.80
2023-03-16T00:36:42.382Z,3.13
2023-03-16T00:39:09.031Z,3.60
2023-03-16T00:41:43.960Z,3.30
2023-03-16T00:44:13.375Z,3.10
2023-03-16T00:46:39.974Z,3.45
2023-03-16T00:49:06.565Z,3.40
2023-03-16T00:51:33.228Z,3.10
2023-03-16T00:54:01.520Z,3.30
2023-03-16T00:56:38.918Z,3.63
2023-03-16T00:59:06.418Z,3.85
2023-03-16T01:01:33.054Z,3.03
2023-03-16T01:03:59.810Z,4.20
2023-03-16T01:06:35.220Z,4.03
2023-03-16T01:09:01.812Z,3.70
2023-03-16T01:11:32.754Z,3.53
2023-03-16T01:14:00.352Z,3.38
2023-03-16T01:16:27.123Z,3.90
2023-03-16T01:18:55.560Z,3.20
2023-03-16T01:21:25.363Z,3.78
2023-03-16T01:23:51.907Z,3.78
2023-03-16T01:26:20.964Z,3.35
2023-03-16T01:28:47.550Z,3.10
2023-03-16T01:31:15.273Z,3.50
2023-03-16T01:33:43.485Z,3.10
2023-03-16T01:36:13.015Z,3.40
2023-03-16T01:38:40.520Z,2.92
2023-03-16T01:41:08.342Z,3.05
2023-03-16T01:43:40.021Z,3.35
2023-03-16T01:46:40.976Z,3.20
2023-03-16T01:49:36.620Z,3.08
2023-03-16T01:52:08.775Z,3.30
2023-03-16T01:57:39.559Z,3.72
2023-03-16T02:00:15.302Z,3.20
2023-03-16T02:02:47.681Z,3.63
2023-03-16T02:05:19.668Z,3.22
2023-03-16T02:07:54.803Z,3.58
2023-03-16T02:10:22.389Z,3.10
2023-03-16T02:12:48.954Z,3.03
2023-03-16T02:15:15.837Z,3.33
2023-03-16T02:17:44.906Z,2.85
2023-03-16T02:20:14.130Z,3.58
2023-03-16T02:23:08.388Z,3.90
2023-03-16T02:26:25.552Z,3.47
2023-03-16T02:29:14.258Z,3.58
2023-03-16T02:31:41.305Z,2.97
2023-03-16T02:34:16.549Z,3.03
2023-03-16T02:36:48.292Z,2.97
2023-03-16T02:39:14.886Z,2.95
2023-03-16T02:41:48.264Z,2.78
2023-03-16T02:44:22.686Z,2.95
2023-03-16T02:46:50.218Z,2.78
2023-03-16T02:49:32.729Z,3.10
2023-03-16T02:52:01.510Z,2.97
2023-03-16T02:54:33.936Z,2.80
2023-03-16T02:57:12.950Z,3.05
2023-03-16T02:59:39.559Z,2.78
2023-03-16T03:02:10.879Z,3.13
2023-03-16T03:04:37.900Z,2.72
2023-03-16T03:07:04.554Z,3.47
2023-03-16T03:09:32.558Z,3.10
2023-03-16T03:11:59.966Z,3.00
2023-03-16T03:14:26.578Z,2.60
2023-03-16T03:17:01.542Z,2.50
2023-03-16T03:19:28.078Z,2.72
2023-03-16T03:21:54.626Z,2.35
2023-03-16T03:24:21.215Z,2.45
2023-03-16T03:26:47.820Z,2.47
2023-03-16T03:29:18.750Z,2.25
2023-03-16T03:34:25.682Z,2.50
2023-03-16T03:36:58.495Z,2.35
2023-03-16T03:39:31.657Z,2.28
2023-03-16T03:41:58.246Z,2.05
2023-03-16T03:44:27.312Z,2.00
2023-03-16T03:47:01.483Z,2.22
2023-03-16T03:49:31.809Z,2.63
2023-03-16T03:52:01.564Z,2.10
2023-03-16T03:54:28.183Z,2.28
2023-03-16T03:56:57.378Z,2.50
2023-03-16T03:59:34.484Z,2.50
2023-03-16T04:02:03.489Z,2.15
2023-03-16T04:04:30.209Z,1.85
2023-03-16T04:06:56.764Z,2.00
2023-03-16T04:09:32.487Z,2.53
2023-03-16T04:12:08.338Z,2.10
2023-03-16T04:14:38.192Z,1.80
2023-03-16T04:17:05.770Z,2.33
2023-03-16T04:19:38.155Z,2.10
2023-03-16T04:22:04.992Z,2.42
2023-03-16T04:24:32.840Z,2.28
2023-03-16T04:27:05.290Z,2.40
2023-03-16T04:29:34.494Z,2.30
2023-03-16T04:32:01.148Z,2.42
2023-03-16T04:34:29.732Z,2.28
2023-03-16T04:36:57.095Z,2.00
2023-03-16T04:39:29.842Z,2.60
2023-03-16T04:41:56.425Z,2.35
2023-03-16T04:44:23.125Z,2.30
2023-03-16T04:46:49.822Z,2.33
2023-03-16T04:49:18.147Z,2.33
2023-03-16T04:52:01.679Z,2.50
2023-03-16T04:54:28.452Z,2.53
2023-03-16T04:57:00.812Z,2.95
2023-03-16T04:59:30.639Z,2.30
2023-03-16T05:02:03.550Z,2.50
2023-03-16T05:04:31.238Z,2.45
2023-03-16T05:07:00.534Z,2.72
2023-03-16T05:09:27.212Z,2.97
2023-03-16T05:12:01.470Z,3.47
2023-03-16T05:14:28.035Z,3.88
2023-03-16T05:16:54.821Z,3.97
2023-03-16T05:19:21.424Z,2.83
2023-03-16T05:21:54.601Z,2.88
2023-03-16T05:24:24.668Z,3.25
2023-03-16T05:26:53.842Z,4.20
2023-03-16T05:29:21.675Z,3.05
2023-03-16T05:31:48.241Z,3.72
2023-03-16T05:34:25.353Z,2.83
2023-03-16T05:36:57.940Z,2.92
2023-03-16T05:39:24.579Z,3.38
2023-03-16T05:42:12.597Z,4.30
2023-03-16T05:44:39.441Z,3.97
2023-03-16T05:47:32.526Z,3.60
2023-03-16T05:50:02.247Z,3.35
2023-03-16T05:52:36.870Z,3.00
2023-03-16T05:55:03.800Z,3.38
2023-03-16T05:57:30.404Z,3.28
2023-03-16T05:59:57.294Z,3.78
2023-03-16T06:02:25.724Z,3.72
2023-03-16T06:04:58.224Z,3.38
2023-03-16T06:07:29.302Z,3.50
2023-03-16T06:10:00.704Z,4.68
2023-03-16T06:12:27.323Z,4.10
2023-03-16T06:14:54.019Z,4.68
2023-03-16T06:17:25.272Z,4.38
2023-03-16T06:19:59.787Z,3.95
2023-03-16T06:22:26.418Z,5.00
2023-03-16T06:24:53.131Z,6.53
2023-03-16T06:27:22.908Z,5.22
2023-03-16T06:29:52.375Z,5.40
2023-03-16T06:32:19.143Z,4.80
2023-03-16T06:34:53.203Z,4.60
2023-03-16T06:37:29.507Z,3.67
2023-03-16T06:40:04.434Z,3.60
2023-03-16T06:42:31.060Z,3.97
2023-03-16T06:45:08.322Z,3.75
2023-03-16T06:47:34.896Z,3.20
2023-03-16T06:50:04.980Z,2.72
2023-03-16T06:52:41.586Z,2.83
2023-03-16T06:55:08.739Z,2.90
2023-03-16T06:57:41.266Z,3.03
2023-03-16T07:00:13.933Z,3.10
2023-03-16T07:02:40.612Z,2.72
2023-03-16T07:05:08.513Z,3.03
2023-03-16T07:07:35.136Z,3.10
2023-03-16T07:10:04.581Z,3.28
2023-03-16T07:12:43.643Z,3.85
2023-03-16T07:15:12.048Z,2.67
2023-03-16T07:17:38.717Z,2.55
2023-03-16T07:20:11.699Z,3.42
2023-03-16T07:22:39.005Z,3.45
2023-03-16T07:25:07.520Z,3.85
2023-03-16T07:27:37.408Z,3.92
2023-03-16T07:30:11.205Z,3.65
2023-03-16T07:32:38.722Z,3.97
2023-03-16T07:35:05.869Z,3.97
2023-03-16T07:38:00.924Z,4.18
2023-03-16T07:40:27.852Z,3.65
2023-03-16T07:42:54.714Z,3.45
2023-03-16T07:45:46.823Z,3.20
2023-03-16T07:48:13.476Z,3.20
2023-03-16T07:50:40.074Z,3.17
2023-03-16T07:53:06.696Z,3.05
2023-03-16T07:55:34.152Z,3.95
2023-03-16T07:58:00.762Z,4.00
2023-03-16T08:00:27.797Z,2.83
2023-03-16T08:02:54.845Z,3.08
2023-03-16T08:05:21.458Z,2.60
2023-03-16T08:07:50.014Z,3.45
2023-03-16T08:10:17.112Z,3.13
2023-03-16T08:12:44.331Z,3.28
2023-03-16T08:15:12.058Z,2.70
2023-03-16T08:17:44.163Z,2.88
2023-03-16T08:20:19.209Z,2.42
2023-03-16T08:22:57.498Z,2.40
2023-03-16T08:25:33.800Z,2.58
2023-03-16T08:28:01.536Z,2.30
2023-03-16T08:30:33.796Z,1.90
2023-03-16T08:33:00.415Z,2.40
2023-03-16T08:35:31.569Z,2.30
2023-03-16T08:38:01.136Z,1.80
2023-03-16T08:40:28.142Z,2.35
2023-03-16T08:42:54.971Z,2.10
2023-03-16T08:45:24.167Z,1.85
2023-03-16T08:47:59.367Z,1.45
2023-03-16T08:50:30.012Z,1.92
2023-03-16T08:52:56.889Z,2.03
2023-03-16T08:55:27.066Z,1.83
2023-03-16T08:57:55.165Z,2.13
2023-03-16T09:00:32.007Z,1.30
2023-03-16T09:03:01.285Z,1.90
2023-03-16T09:05:27.892Z,2.22
2023-03-16T09:08:02.991Z,1.58
2023-03-16T09:10:30.742Z,1.60
2023-03-16T09:12:57.564Z,1.40
2023-03-16T09:15:24.169Z,1.50
2023-03-16T09:18:08.805Z,1.50
2023-03-16T09:20:55.323Z,1.40
2023-03-16T09:23:31.371Z,1.40
2023-03-16T09:25:59.784Z,1.52
2023-03-16T09:28:35.496Z,1.50
2023-03-16T09:31:07.804Z,1.23
2023-03-16T09:33:41.452Z,1.77
2023-03-16T09:36:14.158Z,1.55
2023-03-16T09:38:46.294Z,1.45
2023-03-16T09:41:43.838Z,1.80
2023-03-16T09:44:42.062Z,1.45
2023-03-16T09:47:25.205Z,1.50
2023-03-16T09:50:03.708Z,1.52
2023-03-16T09:53:06.421Z,1.70
2023-03-16T09:55:45.429Z,2.00
2023-03-16T09:58:25.349Z,1.70
2023-03-16T10:01:16.071Z,1.58
2023-03-16T10:04:02.550Z,1.20
2023-03-16T10:06:39.183Z,1.58
2023-03-16T10:09:27.137Z,1.58
2023-03-16T10:15:00.689Z,1.45
2023-03-16T10:18:07.419Z,1.40
2023-03-16T10:20:35.878Z,1.67
2023-03-16T10:23:21.598Z,2.00
2023-03-16T10:25:59.299Z,1.77
2023-03-16T10:28:36.605Z,1.40
2023-03-16T10:31:11.687Z,1.40
2023-03-16T10:33:38.626Z,1.60
2023-03-16T10:36:36.907Z,2.17
2023-03-16T10:39:24.891Z,1.60
2023-03-16T10:42:03.077Z,1.80
2023-03-16T10:44:33.163Z,1.77
2023-03-16T10:47:08.769Z,1.90
2023-03-16T10:49:42.801Z,1.95
2023-03-16T10:52:14.377Z,2.00
2023-03-16T10:54:48.730Z,1.90
2023-03-16T10:57:27.237Z,2.20
2023-03-16T11:00:05.737Z,2.05
2023-03-16T11:02:42.833Z,2.08
2023-03-16T11:05:23.317Z,1.75
2023-03-16T11:08:16.432Z,1.90
2023-03-16T11:10:56.112Z,1.77
2023-03-16T11:13:37.697Z,1.95
2023-03-16T11:16:36.652Z,2.33
2023-03-16T11:19:17.600Z,1.80
2023-03-16T11:22:07.999Z,1.80
2023-03-16T11:24:51.603Z,1.70
2023-03-16T11:27:50.946Z,2.28
2023-03-16T11:30:55.135Z,2.00
2023-03-16T11:33:27.288Z,2.10
2023-03-16T11:36:13.477Z,2.28
2023-03-16T11:39:27.335Z,2.50
2023-03-16T11:42:24.458Z,2.38
2023-03-16T11:45:09.669Z,2.00
2023-03-16T11:47:57.904Z,2.63
2023-03-16T11:50:43.071Z,2.10
2023-03-16T11:53:19.898Z,2.50
2023-03-16T11:56:12.630Z,2.25
2023-03-16T11:59:04.015Z,1.98
2023-03-16T12:02:29.320Z,2.28
2023-03-16T12:05:21.538Z,2.53
2023-03-16T12:08:30.115Z,2.20
2023-03-16T12:11:03.041Z,2.20
2023-03-16T12:13:41.594Z,2.30
2023-03-16T12:16:56.557Z,2.20
2023-03-16T12:19:51.570Z,2.10
2023-03-16T12:22:29.586Z,2.00
2023-03-16T12:24:56.852Z,1.83
2023-03-16T12:27:40.592Z,2.00
2023-03-16T12:30:42.649Z,1.95
2023-03-16T12:33:44.501Z,1.60
2023-03-16T12:36:16.971Z,2.20
2023-03-16T12:39:04.747Z,1.88
2023-03-16T12:41:40.687Z,1.88
2023-03-16T12:44:23.023Z,1.65
2023-03-16T12:47:56.548Z,1.90
2023-03-16T12:50:32.407Z,2.00
2023-03-16T12:52:59.085Z,1.70
2023-03-16T12:55:46.348Z,1.88
2023-03-16T12:58:13.203Z,1.88
2023-03-16T13:00:42.454Z,2.25
2023-03-16T13:03:22.614Z,1.45
2023-03-16T13:05:59.907Z,1.42
2023-03-16T13:08:41.322Z,1.75
2023-03-16T13:11:17.012Z,1.30
2023-03-16T13:14:06.665Z,1.52
2023-03-16T13:16:36.780Z,1.92
2023-03-16T13:19:32.839Z,2.00
2023-03-16T13:22:26.909Z,1.85
2023-03-16T13:25:26.770Z,1.88
2023-03-16T13:28:01.394Z,1.60
2023-03-16T13:30:46.206Z,1.63
2023-03-16T13:33:23.311Z,2.53
2023-03-16T13:35:56.915Z,1.73
2023-03-16T13:38:25.574Z,1.92
2023-03-16T13:40:54.160Z,2.10
2023-03-16T13:43:24.477Z,1.73
2023-03-16T13:45:54.019Z,1.85
2023-03-16T13:48:26.391Z,1.75
2023-03-16T13:50:57.642Z,1.63
2023-03-16T13:53:27.507Z,2.15
2023-03-16T13:55:55.849Z,1.80
2023-03-16T13:58:41.085Z,2.03
2023-03-16T14:01:26.486Z,2.35
2023-03-16T14:03:58.252Z,1.50
2023-03-16T14:06:33.120Z,1.55
2023-03-16T14:09:08.167Z,1.75
2023-03-16T14:11:37.369Z,1.58
2023-03-16T14:14:29.207Z,1.70
2023-03-16T14:17:02.170Z,1.55
2023-03-16T14:19:39.914Z,1.65
2023-03-16T14:22:06.526Z,1.63
2023-03-16T14:24:34.945Z,1.50
2023-03-16T14:27:21.330Z,2.00
2023-03-16T14:30:02.918Z,1.42
2023-03-16T14:32:36.747Z,1.77
2023-03-16T14:35:16.364Z,1.50
2023-03-16T14:37:46.584Z,1.63
2023-03-16T14:40:31.671Z,1.40
2023-03-16T14:43:09.533Z,1.48
2023-03-16T14:45:41.603Z,1.90
2023-03-16T14:48:24.884Z,1.83
2023-03-16T14:50:55.069Z,1.90
2023-03-16T14:53:32.164Z,1.73
2023-03-16T14:56:09.224Z,1.70
2023-03-16T14:58:37.851Z,1.75
2023-03-16T15:01:07.235Z,1.60
2023-03-16T15:03:36.149Z,1.73
2023-03-16T15:06:13.122Z,1.60
2023-03-16T15:08:53.468Z,1.70
2023-03-16T15:11:30.503Z,1.90
2023-03-16T15:14:03.586Z,1.60
2023-03-16T15:16:31.138Z,1.63
2023-03-16T15:19:19.378Z,1.83
2023-03-16T15:21:46.092Z,1.90
2023-03-16T15:24:12.650Z,1.90
2023-03-16T15:26:41.045Z,1.65
2023-03-16T15:29:14.008Z,1.70
2023-03-16T15:31:50.006Z,1.60
2023-03-16T15:34:17.467Z,1.80
2023-03-16T15:36:44.157Z,1.92
2023-03-16T15:39:26.254Z,2.00
2023-03-16T15:41:55.931Z,1.77
2023-03-16T15:44:29.077Z,1.45
2023-03-16T15:47:00.915Z,1.55
2023-03-16T15:49:30.178Z,1.60
2023-03-16T15:54:40.484Z,1.58
2023-03-16T15:57:19.804Z,1.92
2023-03-16T15:59:53.330Z,1.92
2023-03-16T16:02:38.076Z,1.70
2023-03-16T16:05:08.010Z,2.05
2023-03-16T16:07:49.489Z,1.90
2023-03-16T16:10:25.926Z,1.80
2023-03-16T16:12:55.595Z,1.80
2023-03-16T16:15:24.208Z,2.15
2023-03-16T16:18:20.846Z,1.55
2023-03-16T16:20:55.042Z,1.40
2023-03-16T16:23:26.963Z,1.80
2023-03-16T16:25:56.466Z,2.13
2023-03-16T16:28:30.375Z,1.73
2023-03-16T16:31:08.491Z,1.80
2023-03-16T16:33:35.477Z,1.63
2023-03-16T16:36:05.405Z,1.80
2023-03-16T16:38:42.232Z,1.58
2023-03-16T16:41:09.614Z,1.80
2023-03-16T16:43:38.933Z,1.70
2023-03-16T16:46:12.786Z,1.60
2023-03-16T16:48:43.996Z,1.95
2023-03-16T16:51:20.543Z,2.10
2023-03-16T16:53:48.013Z,1.70
2023-03-16T16:56:23.475Z,1.80
2023-03-16T16:58:53.588Z,1.90
2023-03-16T17:01:32.242Z,2.38
2023-03-16T17:04:00.186Z,2.20
2023-03-16T17:06:29.463Z,1.90
2023-03-16T17:09:01.802Z,1.80
2023-03-16T17:11:35.856Z,1.65
2023-03-16T17:14:14.652Z,2.25
2023-03-16T17:16:44.559Z,1.75
2023-03-16T17:19:19.502Z,2.17
2023-03-16T17:21:46.112Z,1.90
2023-03-16T17:24:16.084Z,2.08
2023-03-16T17:26:58.748Z,2.38
2023-03-16T17:29:33.965Z,2.33
2023-03-16T17:32:16.415Z,2.55
2023-03-16T17:34:49.899Z,2.30
2023-03-16T17:37:23.949Z,2.42
2023-03-16T17:39:57.851Z,2.20
2023-03-16T17:42:24.751Z,2.55
2023-03-16T17:44:53.145Z,2.42
2023-03-16T17:47:23.517Z,2.20
2023-03-16T17:49:53.996Z,2.03
2023-03-16T17:52:27.882Z,2.28
2023-03-16T17:54:54.807Z,2.10
2023-03-16T17:57:48.446Z,2.28
2023-03-16T18:00:34.012Z,2.47
2023-03-16T18:03:30.845Z,2.05
2023-03-16T18:06:00.598Z,2.60
2023-03-16T18:08:36.346Z,2.53
2023-03-16T18:11:16.345Z,2.55
2023-03-16T18:13:44.889Z,2.80
2023-03-16T18:16:24.005Z,2.67
2023-03-16T18:18:59.604Z,2.60
2023-03-16T18:24:23.601Z,2.55
2023-03-16T18:26:52.116Z,2.45
2023-03-16T18:29:25.419Z,2.20
2023-03-16T18:32:06.315Z,2.15
2023-03-16T18:34:48.922Z,2.38
2023-03-16T18:37:27.081Z,2.22
2023-03-16T18:40:04.814Z,2.80
2023-03-16T18:42:52.274Z,2.63
2023-03-16T18:45:20.607Z,2.72
2023-03-16T18:47:51.050Z,2.90
2023-03-16T18:50:39.198Z,2.80
2023-03-16T18:53:10.147Z,2.90
2023-03-16T18:55:36.761Z,3.05
2023-03-16T18:58:17.872Z,3.17
2023-03-16T19:01:08.188Z,2.92
2023-03-16T19:03:51.283Z,3.20
2023-03-16T19:06:35.931Z,3.28
2023-03-16T19:09:25.184Z,3.47
2023-03-16T19:12:02.427Z,3.38
2023-03-16T19:14:38.951Z,3.35
2023-03-16T19:17:06.028Z,3.65
2023-03-16T19:19:34.962Z,3.92
2023-03-16T19:22:12.007Z,3.70
2023-03-16T19:24:47.392Z,3.63
2023-03-16T19:27:28.009Z,3.60
2023-03-16T19:29:55.961Z,3.83
2023-03-16T19:32:37.756Z,4.13
2023-03-16T19:35:19.308Z,3.97
2023-03-16T19:38:05.065Z,4.13
2023-03-16T19:40:35.394Z,4.22
2023-03-16T19:43:05.267Z,4.00
2023-03-16T19:45:36.139Z,4.22
2023-03-16T19:48:34.410Z,4.63
2023-03-16T19:51:13.946Z,4.40
2023-03-16T19:54:01.209Z,4.82
2023-03-16T19:56:28.010Z,5.97
2023-03-16T19:59:03.946Z,5.57
2023-03-16T20:01:33.804Z,3.83
2023-03-16T20:04:00.538Z,4.72
2023-03-16T20:06:41.465Z,4.85
2023-03-16T20:09:08.730Z,4.50
2023-03-16T20:11:38.194Z,5.05
2023-03-16T20:14:30.329Z,4.85
2023-03-16T20:17:07.855Z,5.07
2023-03-16T20:19:35.252Z,4.93
2023-03-16T20:22:08.808Z,5.00
2023-03-16T20:24:35.550Z,4.80
2023-03-16T20:27:02.335Z,5.18
2023-03-16T20:29:33.776Z,5.30
2023-03-16T20:32:01.445Z,6.03
2023-03-16T20:34:32.981Z,5.50
2023-03-16T20:37:02.941Z,5.40
2023-03-16T20:39:29.713Z,5.25
2023-03-16T20:42:14.160Z,5.75
2023-03-16T20:44:43.206Z,5.53
2023-03-16T20:47:38.260Z,5.45
2023-03-16T20:50:06.168Z,6.45
2023-03-16T20:52:50.197Z,5.45
2023-03-16T20:55:40.896Z,5.53
2023-03-16T20:58:34.505Z,5.60
2023-03-16T21:01:04.933Z,5.30
2023-03-16T21:03:34.765Z,5.70
2023-03-16T21:06:10.547Z,5.78
2023-03-16T21:08:45.414Z,5.88
2023-03-16T21:11:32.301Z,5.70
2023-03-16T21:14:09.093Z,4.95
2023-03-16T21:16:36.405Z,6.00
2023-03-16T21:19:20.947Z,5.97
2023-03-16T21:21:47.890Z,5.82
2023-03-16T21:24:14.860Z,5.93
2023-03-16T21:26:45.134Z,5.75
2023-03-16T21:29:22.130Z,5.50
2023-03-16T21:32:04.929Z,5.60
2023-03-16T21:34:35.653Z,6.25
2023-03-16T21:37:19.885Z,6.28
2023-03-16T21:39:53.145Z,5.63
2023-03-16T21:42:34.477Z,6.00
2023-03-16T21:45:05.598Z,5.85
2023-03-16T21:47:44.141Z,6.00
2023-03-16T21:50:25.542Z,5.70
2023-03-16T21:53:00.604Z,5.57
2023-03-16T21:55:37.203Z,5.32
2023-03-16T21:58:20.689Z,5.43
2023-03-16T22:00:55.656Z,5.90
2023-03-16T22:03:47.993Z,5.55
2023-03-16T22:06:19.938Z,5.35
2023-03-16T22:11:40.241Z,5.72
2023-03-16T22:14:10.116Z,5.25
2023-03-16T22:16:40.189Z,5.25
2023-03-16T22:19:16.289Z,5.63
2023-03-16T22:21:57.000Z,4.95
2023-03-16T22:24:30.461Z,5.35
2023-03-16T22:27:18.563Z,4.65
2023-03-16T22:29:58.673Z,4.70
2023-03-16T22:32:25.937Z,5.30
2023-03-16T22:34:54.908Z,5.15
2023-03-16T22:37:29.945Z,4.68
2023-03-16T22:40:07.994Z,5.88
2023-03-16T22:42:38.690Z,5.38
2023-03-16T22:45:50.324Z,6.03
2023-03-16T22:48:29.971Z,5.35
2023-03-16T22:51:09.409Z,5.47
2023-03-16T22:53:43.722Z,5.10
2023-03-16T22:56:15.163Z,4.85
2023-03-16T22:58:55.549Z,4.93
2023-03-16T23:01:33.042Z,5.28
2023-03-16T23:04:02.240Z,5.30
2023-03-16T23:06:42.917Z,5.32
2023-03-16T23:09:19.857Z,5.10
2023-03-16T23:11:48.912Z,4.70
2023-03-16T23:14:18.297Z,4.25
2023-03-16T23:16:56.122Z,4.20
2023-03-16T23:19:27.270Z,4.95
2023-03-16T23:21:57.125Z,4.93
2023-03-16T23:24:24.009Z,4.75
2023-03-16T23:27:21.595Z,4.70
2023-03-16T23:29:49.366Z,4.03
2023-03-16T23:32:16.278Z,3.97
2023-03-16T23:34:43.197Z,4.10
2023-03-16T23:37:18.997Z,4.70
2023-03-16T23:40:01.725Z,4.32
2023-03-16T23:42:29.218Z,4.78
2023-03-16T23:45:21.318Z,4.07
2023-03-16T23:47:56.971Z,3.40
2023-03-16T23:50:33.687Z,4.03
2023-03-16T23:53:06.128Z,3.50
2023-03-16T23:55:33.029Z,3.50
2023-03-16T23:58:00.455Z,3.60
